This is the latest recevied weather packets stored in our database for station/object OE6ACM-14. If no packets are shown the sender has not sent any weather packets the latest 10 day(s).
| Time | Temp. | Humidity | Pressure | Rain* | Wind** | Luminosity | Snow |
|---|---|---|---|---|---|---|---|
| 1787908224 | 35.56° C | 33% | 927.4 hPa | - | - | - | - |
| 1787907924 | 36.11° C | 32% | 927.4 hPa | - | - | - | - |
| 1787907624 | 38.33° C | 29% | 927.5 hPa | - | - | - | - |
| 1787907324 | 38.89° C | 27% | 927.6 hPa | - | - | - | - |
| 1787907024 | 38.33° C | 29% | 927.6 hPa | - | - | - | - |
| 1787906724 | 39.44° C | 28% | 927.8 hPa | - | - | - | - |
| 1787906424 | 39.44° C | 28% | 927.8 hPa | - | - | - | - |
| 1787906124 | 38.33° C | 29% | 927.9 hPa | - | - | - | - |
| 1787905824 | 38.33° C | 29% | 927.9 hPa | - | - | - | - |
| 1787905524 | 39.44° C | 28% | 927.8 hPa | - | - | - | - |
| 1787905224 | 40.56° C | 28% | 927.8 hPa | - | - | - | - |
| 1787904924 | 39.44° C | 29% | 927.7 hPa | - | - | - | - |
| 1787904624 | 38.33° C | 30% | 927.8 hPa | - | - | - | - |
| 1787904324 | 37.22° C | 31% | 927.9 hPa | - | - | - | - |
| 1787904024 | 38.33° C | 31% | 928 hPa | - | - | - | - |
| 1787903724 | 36.11° C | 33% | 928.1 hPa | - | - | - | - |
| 1787903424 | 35° C | 35% | 928 hPa | - | - | - | - |
| 1787903124 | 34.44° C | 35% | 928 hPa | - | - | - | - |
| 1787902824 | 35° C | 34% | 928.2 hPa | - | - | - | - |
| 1787902524 | 35.56° C | 35% | 928.3 hPa | - | - | - | - |
| 1787902224 | 33.89° C | 37% | 928.2 hPa | - | - | - | - |
| 1787901924 | 35° C | 36% | 928.4 hPa | - | - | - | - |
| 1787901624 | 35° C | 36% | 928.3 hPa | - | - | - | - |
| 1787901324 | 35.56° C | 35% | 928.5 hPa | - | - | - | - |
| 1787901024 | 34.44° C | 40% | 928.6 hPa | - | - | - | - |
* Rain since midnight (hover to see other rain measurements)
** Current wind speed in m/s (hover to see current wind gust speed)